Time;durP1;ratioP1;P1;durP2;ratioP2;P2;SDS_P1;SDS_P2;PMS_P1;PMS_P2;Temp;Humidity;BMP_temperature;BMP_pressure;BME280_temperature;BME280_humidity;BME280_pressure;Samples;Min_cycle;Max_cycle;Signal;HPM_P1;HPM_P2
2021/08/04 00:00:49;;;;;;;1999.90;999.90;;;16.30;99.90;;;;;;4893536;29;20198;-80
2021/08/04 00:03:14;;;;;;;1999.90;999.90;;;16.20;99.90;;;;;;4894034;29;20169;-80
2021/08/04 00:05:40;;;;;;;1999.90;999.90;;;16.20;99.90;;;;;;4893657;29;20175;-80
2021/08/04 00:08:06;;;;;;;1999.90;999.90;;;16.20;99.90;;;;;;4893303;29;20202;-80
2021/08/04 00:10:31;;;;;;;1999.90;999.90;;;16.20;99.90;;;;;;4893277;29;20167;-80
2021/08/04 00:12:57;;;;;;;1999.90;999.90;;;16.20;99.90;;;;;;4893484;29;20702;-81
2021/08/04 00:15:26;;;;;;;1999.90;999.90;;;16.20;99.90;;;;;;4894192;29;20207;-81
2021/08/04 00:17:51;;;;;;;1999.90;999.90;;;16.20;99.90;;;;;;4894241;29;20195;-80
2021/08/04 00:20:17;;;;;;;1999.90;999.90;;;16.20;99.90;;;;;;4909571;29;21002;-80
2021/08/04 00:22:43;;;;;;;1999.90;999.90;;;16.20;99.90;;;;;;4895314;29;20171;-80
2021/08/04 00:25:09;;;;;;;1999.90;999.90;;;16.10;99.90;;;;;;4894747;29;20234;-80
2021/08/04 00:27:35;;;;;;;1999.90;999.90;;;16.10;99.90;;;;;;4894594;29;20193;-80
2021/08/04 00:30:03;;;;;;;1999.90;999.90;;;16.10;99.90;;;;;;4891397;29;20417;-81
2021/08/04 00:32:28;;;;;;;1999.90;999.90;;;16.00;99.90;;;;;;4910660;29;20939;-81
2021/08/04 00:34:54;;;;;;;1999.90;999.90;;;16.00;99.90;;;;;;4894428;29;20437;-81
2021/08/04 00:37:20;;;;;;;1999.90;999.90;;;16.00;99.90;;;;;;4894223;29;20194;-80
2021/08/04 00:39:46;;;;;;;1999.90;999.90;;;16.00;99.90;;;;;;4893612;29;20664;-80
2021/08/04 00:42:12;;;;;;;1999.90;999.90;;;16.00;99.90;;;;;;4892191;29;20198;-80
2021/08/04 00:44:38;;;;;;;1999.90;999.90;;;16.00;99.90;;;;;;4894022;29;20411;-80
2021/08/04 00:47:05;;;;;;;1999.90;999.90;;;15.90;99.90;;;;;;4893552;29;20197;-80
2021/08/04 00:49:32;;;;;;;1999.90;999.90;;;15.90;99.90;;;;;;4892878;29;20409;-80
2021/08/04 00:51:57;;;;;;;1999.90;999.90;;;15.90;99.90;;;;;;4893843;29;20415;-80
2021/08/04 00:54:23;;;;;;;1999.90;999.90;;;15.90;99.90;;;;;;4893752;29;20416;-80
2021/08/04 00:56:49;;;;;;;1999.90;999.90;;;15.90;99.90;;;;;;4893156;29;20753;-80
2021/08/04 00:59:15;;;;;;;1999.90;999.90;;;15.90;99.90;;;;;;4894126;29;20223;-80
2021/08/04 01:01:46;;;;;;;1999.90;999.90;;;15.80;99.90;;;;;;4908506;29;20209;-80
2021/08/04 01:04:54;;;;;;;1999.90;999.90;;;15.80;99.90;;;;;;4893649;29;20405;-81
2021/08/04 01:07:33;;;;;;;1999.90;999.90;;;15.80;99.90;;;;;;4891907;29;20438;-80
2021/08/04 01:09:59;;;;;;;1999.90;999.90;;;15.80;99.90;;;;;;4894419;29;20417;-80
2021/08/04 01:12:30;;;;;;;1999.90;999.90;;;15.70;99.90;;;;;;4909136;29;20418;-80
2021/08/04 01:15:02;;;;;;;1999.90;999.90;;;15.70;99.90;;;;;;4892983;29;20176;-80
2021/08/04 01:17:28;;;;;;;1999.90;999.90;;;15.70;99.90;;;;;;4894182;29;20512;-80
2021/08/04 01:20:21;;;;;;;1999.90;999.90;;;15.70;99.90;;;;;;4894506;29;20428;-80
2021/08/04 01:23:03;;;;;;;1999.90;999.90;;;15.60;99.90;;;;;;4908306;29;20168;-80
2021/08/04 01:25:42;;;;;;;1999.90;999.90;;;15.60;99.90;;;;;;4894316;29;20389;-80
2021/08/04 01:28:34;;;;;;;1999.90;999.90;;;15.60;99.90;;;;;;4893286;29;20387;-80
2021/08/04 01:31:06;;;;;;;1999.90;999.90;;;15.60;99.90;;;;;;4893490;29;20457;-80
2021/08/04 01:33:36;;;;;;;1999.90;999.90;;;15.50;99.90;;;;;;4893616;29;20429;-80
2021/08/04 01:36:02;;;;;;;1999.90;999.90;;;15.50;99.90;;;;;;4893145;29;20428;-80
2021/08/04 01:38:30;;;;;;;1999.90;999.90;;;15.50;99.90;;;;;;4907525;29;20421;-80
2021/08/04 01:40:56;;;;;;;1999.90;999.90;;;15.50;99.90;;;;;;4893961;29;20459;-80
2021/08/04 01:43:24;;;;;;;1999.90;999.90;;;15.50;99.90;;;;;;4893307;29;20452;-80
2021/08/04 01:45:51;;;;;;;1999.90;999.90;;;15.50;99.90;;;;;;4894061;29;20419;-80
2021/08/04 01:48:19;;;;;;;1999.90;999.90;;;15.50;99.90;;;;;;4893443;29;20412;-80
2021/08/04 01:50:45;;;;;;;1999.90;999.90;;;15.40;99.90;;;;;;4892636;29;20424;-80
2021/08/04 01:53:11;;;;;;;1999.90;999.90;;;15.40;99.90;;;;;;4893519;29;20784;-80
2021/08/04 01:55:37;;;;;;;1999.90;999.90;;;15.40;99.90;;;;;;4893770;29;20413;-80
2021/08/04 01:58:05;;;;;;;1999.90;999.90;;;15.40;99.90;;;;;;4892164;29;20413;-80
2021/08/04 02:00:31;;;;;;;1999.90;999.90;;;15.40;99.90;;;;;;4893428;29;20449;-80
2021/08/04 02:02:57;;;;;;;1999.90;999.90;;;15.30;99.90;;;;;;4893168;29;20421;-80
2021/08/04 02:05:23;;;;;;;1999.90;999.90;;;15.30;99.90;;;;;;4893493;29;20190;-80
2021/08/04 02:08:02;;;;;;;1999.90;999.90;;;15.30;99.90;;;;;;4893158;29;20193;-80
2021/08/04 02:10:57;;;;;;;1999.90;999.90;;;15.30;99.90;;;;;;4889915;29;20235;-80
2021/08/04 02:13:47;;;;;;;1999.90;999.90;;;15.30;99.90;;;;;;4892534;29;20414;-80
2021/08/04 02:16:33;;;;;;;1999.90;999.90;;;15.20;99.90;;;;;;4893446;29;20433;-80
2021/08/04 02:19:27;;;;;;;1999.90;999.90;;;15.20;99.90;;;;;;4892527;29;20450;-80
2021/08/04 02:22:09;;;;;;;1999.90;999.90;;;15.20;99.90;;;;;;4907712;29;20546;-80
2021/08/04 02:24:40;;;;;;;1999.90;999.90;;;15.20;99.90;;;;;;4892963;29;20388;-80
2021/08/04 02:27:07;;;;;;;1999.90;999.90;;;15.20;99.90;;;;;;4892131;29;20449;-80
2021/08/04 02:29:36;;;;;;;1999.90;999.90;;;15.10;99.90;;;;;;4892806;29;20488;-80
2021/08/04 02:32:04;;;;;;;1999.90;999.90;;;15.20;99.90;;;;;;4893276;29;20411;-81
2021/08/04 02:34:29;;;;;;;1999.90;999.90;;;15.10;99.90;;;;;;4892762;29;20427;-80
2021/08/04 02:36:55;;;;;;;1999.90;999.90;;;15.10;99.90;;;;;;4892025;29;20463;-80
2021/08/04 02:39:21;;;;;;;1999.90;999.90;;;15.10;99.90;;;;;;4892886;29;20177;-81
2021/08/04 02:41:48;;;;;;;1999.90;999.90;;;15.10;99.90;;;;;;4891885;29;20450;-81
2021/08/04 02:44:15;;;;;;;1999.90;999.90;;;15.10;99.90;;;;;;4892163;29;20407;-81
2021/08/04 02:46:44;;;;;;;1999.90;999.90;;;15.10;99.90;;;;;;4892569;29;20435;-81
2021/08/04 02:49:10;;;;;;;1999.90;999.90;;;15.10;99.90;;;;;;4892650;29;20900;-81
2021/08/04 02:51:40;;;;;;;1999.90;999.90;;;15.00;99.90;;;;;;4892784;29;20436;-80
2021/08/04 02:54:07;;;;;;;1999.90;999.90;;;15.00;99.90;;;;;;4892423;29;20531;-81
2021/08/04 02:56:33;;;;;;;1999.90;999.90;;;15.00;99.90;;;;;;4892021;29;20500;-81
2021/08/04 02:58:58;;;;;;;1999.90;999.90;;;15.00;99.90;;;;;;4891497;29;20412;-80
2021/08/04 03:01:24;;;;;;;1999.90;999.90;;;14.90;99.90;;;;;;4892268;29;20191;-81
2021/08/04 03:03:50;;;;;;;1999.90;999.90;;;14.90;99.90;;;;;;4891678;29;20176;-81
2021/08/04 03:06:16;;;;;;;1999.90;999.90;;;14.90;99.90;;;;;;4891598;29;20478;-80
2021/08/04 03:08:41;;;;;;;1999.90;999.90;;;14.90;99.90;;;;;;4891454;29;20178;-81
2021/08/04 03:11:08;;;;;;;1999.90;999.90;;;14.90;99.90;;;;;;4891851;29;20183;-81
2021/08/04 03:13:34;;;;;;;1999.90;999.90;;;14.90;99.90;;;;;;4891220;29;20184;-81
2021/08/04 03:16:03;;;;;;;1999.90;999.90;;;14.90;99.90;;;;;;4891795;29;20492;-80
2021/08/04 03:18:32;;;;;;;1999.90;999.90;;;14.90;99.90;;;;;;4892004;29;20417;-81
2021/08/04 03:20:57;;;;;;;1999.90;999.90;;;14.80;99.90;;;;;;4891226;29;20979;-81
2021/08/04 03:23:24;;;;;;;1999.90;999.90;;;14.80;99.90;;;;;;4891387;29;20408;-81
2021/08/04 03:25:49;;;;;;;1999.90;999.90;;;14.80;99.90;;;;;;4889820;29;20171;-80
2021/08/04 03:28:15;;;;;;;1999.90;999.90;;;14.80;99.90;;;;;;4891484;29;20443;-81
2021/08/04 03:30:41;;;;;;;1999.90;999.90;;;14.80;99.90;;;;;;4890891;29;20307;-81
2021/08/04 03:36:05;;;;;;;1999.90;999.90;;;14.70;99.90;;;;;;780638;27;20510;-83
2021/08/04 03:42:16;;;;;;;;;;;;;;;;;;;;;
2021/08/04 03:45:10;;;;;;;1999.90;999.90;;;14.60;99.90;;;;;;4883382;29;20479;-83
2021/08/04 03:48:05;;;;;;;1999.90;999.90;;;14.60;99.90;;;;;;4881541;29;20860;-83
2021/08/04 03:54:10;;;;;;;1999.90;999.90;;;14.60;99.90;;;;;;4881678;29;20483;-83
2021/08/04 03:57:10;;;;;;;1999.90;999.90;;;14.60;99.90;;;;;;4916730;29;20489;-83
2021/08/04 04:00:19;;;;;;;1999.90;999.90;;;14.60;99.90;;;;;;4900153;29;20419;-83
2021/08/04 04:03:22;;;;;;;1999.90;999.90;;;14.60;99.90;;;;;;4880375;29;20922;-83
2021/08/04 04:06:01;;;;;;;1999.90;999.90;;;14.60;99.90;;;;;;4917495;29;20429;-83
2021/08/04 04:09:06;;;;;;;1999.90;999.90;;;14.50;99.90;;;;;;4912139;29;20424;-83
2021/08/04 04:15:33;;;;;;;1999.90;999.90;;;14.50;99.90;;;;;;4846201;29;20490;-83
2021/08/04 04:21:51;;;;;;;1999.90;999.90;;;14.50;99.90;;;;;;4836588;29;20468;-83
2021/08/04 04:28:55;;;;;;;1999.90;999.90;;;14.60;99.90;;;;;;4845817;29;20562;-83
2021/08/04 04:31:28;;;;;;;1999.90;999.90;;;14.60;99.90;;;;;;4846960;29;20412;-83
2021/08/04 04:35:13;;;;;;;1999.90;999.90;;;14.70;99.90;;;;;;4867634;29;20484;-83
2021/08/04 04:38:16;;;;;;;1999.90;999.90;;;14.70;99.90;;;;;;4732796;30;20476;-83
2021/08/04 04:41:26;;;;;;;1999.90;999.90;;;14.70;99.90;;;;;;4789545;30;20449;-83
2021/08/04 04:44:27;;;;;;;1999.90;999.90;;;14.80;99.90;;;;;;4883040;29;20826;-83
2021/08/04 04:47:23;;;;;;;1999.90;999.90;;;14.80;99.90;;;;;;4884437;29;20437;-83
2021/08/04 04:53:56;;;;;;;1999.90;999.90;;;14.90;99.90;;;;;;4894110;29;20427;-83
2021/08/04 04:56:56;;;;;;;;;;;;;;;;;;;;;
2021/08/04 04:59:48;;;;;;;;;;;;;;;;;;;;;
2021/08/04 05:03:26;;;;;;;;;;;;;;;;;;;;;
2021/08/04 05:06:17;;;;;;;1999.90;999.90;;;15.20;99.90;;;;;;4882426;29;20411;-83
2021/08/04 05:09:21;;;;;;;1999.90;999.90;;;15.20;99.90;;;;;;4914499;29;20423;-83
2021/08/04 05:16:15;;;;;;;1999.90;999.90;;;15.30;99.90;;;;;;4900905;29;20490;-83
2021/08/04 05:19:20;;;;;;;1999.90;999.90;;;15.30;99.90;;;;;;4885059;29;20419;-83
2021/08/04 05:26:23;;;;;;;1999.90;999.90;;;15.30;99.90;;;;;;4794700;29;20775;-83
2021/08/04 05:29:16;;;;;;;1999.90;999.90;;;15.20;99.90;;;;;;4724927;30;20431;-83
2021/08/04 05:35:40;;;;;;;1999.90;999.90;;;15.20;99.90;;;;;;4752417;30;20483;-83
2021/08/04 05:38:58;;;;;;;1999.90;999.90;;;15.20;99.90;;;;;;4923835;23;20508;-83
2021/08/04 05:42:22;;;;;;;;;;;;;;;;;;;;;
2021/08/04 05:45:38;;;;;;;1999.90;999.90;;;15.30;99.90;;;;;;4889561;29;20433;-83
2021/08/04 05:55:40;;;;;;;1999.90;999.90;;;15.30;99.90;;;;;;4882210;29;20428;-83
2021/08/04 05:58:41;;;;;;;1999.90;999.90;;;15.30;99.90;;;;;;4899840;29;20793;-83
2021/08/04 06:04:26;;;;;;;1999.90;999.90;;;15.40;99.90;;;;;;4898922;29;20479;-83
2021/08/04 06:06:51;;;;;;;1999.90;999.90;;;15.40;99.90;;;;;;4900888;29;20435;-83
2021/08/04 06:09:17;;;;;;;1999.90;999.90;;;15.40;99.90;;;;;;4880756;29;20665;-83
2021/08/04 06:11:43;;;;;;;1999.90;999.90;;;15.40;99.90;;;;;;4895816;29;20187;-83
2021/08/04 06:14:09;;;;;;;1999.90;999.90;;;15.30;99.90;;;;;;4867140;29;20642;-83
2021/08/04 06:16:35;;;;;;;1999.90;999.90;;;15.30;99.90;;;;;;4894774;29;20225;-84
2021/08/04 06:19:00;;;;;;;1999.90;999.90;;;15.40;99.90;;;;;;4898493;29;20234;-83
2021/08/04 06:21:27;;;;;;;1999.90;999.90;;;15.50;99.90;;;;;;4869113;29;20463;-84
2021/08/04 06:23:53;;;;;;;1999.90;999.90;;;15.50;99.90;;;;;;4865595;29;20476;-83
2021/08/04 06:26:19;;;;;;;1999.90;999.90;;;15.50;99.90;;;;;;4864654;29;20191;-82
2021/08/04 06:28:50;;;;;;;1999.90;999.90;;;15.60;99.90;;;;;;4865126;29;20473;-83
2021/08/04 06:31:16;;;;;;;1999.90;999.90;;;15.70;99.90;;;;;;4894957;29;20178;-83
2021/08/04 06:33:42;;;;;;;1999.90;999.90;;;15.70;99.90;;;;;;4893629;29;20410;-83
2021/08/04 06:36:10;;;;;;;1999.90;999.90;;;15.70;99.90;;;;;;4866396;29;20201;-84
2021/08/04 06:38:36;;;;;;;1999.90;999.90;;;15.70;99.90;;;;;;4866867;29;20228;-83
2021/08/04 06:41:02;;;;;;;1999.90;999.90;;;15.80;99.90;;;;;;4866122;29;20465;-84
2021/08/04 06:43:28;;;;;;;1999.90;999.90;;;15.90;99.90;;;;;;4866167;29;20417;-83
2021/08/04 06:45:54;;;;;;;1999.90;999.90;;;15.90;99.90;;;;;;4867510;29;20261;-83
2021/08/04 06:48:19;;;;;;;1999.90;999.90;;;16.00;99.90;;;;;;4867832;29;20173;-83
2021/08/04 06:50:46;;;;;;;1999.90;999.90;;;16.00;99.90;;;;;;4864437;29;20193;-84
2021/08/04 06:53:15;;;;;;;1999.90;999.90;;;16.00;99.90;;;;;;4869286;29;20175;-83
2021/08/04 06:55:41;;;;;;;1999.90;999.90;;;16.00;99.90;;;;;;4868210;29;20437;-83
2021/08/04 06:58:06;;;;;;;1999.90;999.90;;;16.00;99.90;;;;;;4867602;29;20406;-83
2021/08/04 07:00:32;;;;;;;1999.90;999.90;;;16.00;99.90;;;;;;4897579;29;20426;-83
2021/08/04 07:02:58;;;;;;;1999.90;999.90;;;16.00;99.90;;;;;;4867031;29;20180;-81
2021/08/04 07:05:23;;;;;;;1999.90;999.90;;;16.00;99.90;;;;;;4864771;29;20176;-84
2021/08/04 07:07:49;;;;;;;1999.90;999.90;;;16.00;99.90;;;;;;4865474;29;20201;-84
2021/08/04 07:10:15;;;;;;;1999.90;999.90;;;16.00;99.90;;;;;;4863991;29;20620;-84
2021/08/04 07:12:40;;;;;;;1999.90;999.90;;;15.90;99.90;;;;;;4864563;29;20180;-83
2021/08/04 07:15:07;;;;;;;1999.90;999.90;;;15.90;99.90;;;;;;4863188;29;20201;-83
2021/08/04 07:17:48;;;;;;;1999.90;999.90;;;16.00;99.90;;;;;;4864053;29;20445;-84
2021/08/04 07:20:16;;;;;;;1999.90;999.90;;;15.90;99.90;;;;;;4864533;29;20403;-83
2021/08/04 07:22:42;;;;;;;1999.90;999.90;;;16.00;99.90;;;;;;4863692;29;20455;-84
2021/08/04 07:25:08;;;;;;;1999.90;999.90;;;16.00;99.90;;;;;;4864701;29;20414;-84
2021/08/04 07:27:35;;;;;;;1999.90;999.90;;;16.00;99.90;;;;;;4864204;29;20270;-83
2021/08/04 07:30:01;;;;;;;1999.90;999.90;;;16.00;99.90;;;;;;4864288;29;20404;-84
2021/08/04 07:32:27;;;;;;;1999.90;999.90;;;16.10;99.90;;;;;;4864378;29;20506;-84
2021/08/04 07:34:53;;;;;;;1999.90;999.90;;;16.10;99.90;;;;;;4864842;29;20874;-84
2021/08/04 07:37:18;;;;;;;1999.90;999.90;;;16.10;99.90;;;;;;4864624;29;20761;-84
2021/08/04 07:39:44;;;;;;;1999.90;999.90;;;16.10;99.90;;;;;;4865096;29;20417;-84
2021/08/04 07:42:10;;;;;;;1999.90;999.90;;;16.20;99.90;;;;;;4866195;29;20226;-83
2021/08/04 07:44:35;;;;;;;1999.90;999.90;;;16.20;99.90;;;;;;4867055;29;20546;-84
2021/08/04 07:47:01;;;;;;;1999.90;999.90;;;16.20;99.90;;;;;;4868295;29;20247;-84
2021/08/04 07:49:27;;;;;;;1999.90;999.90;;;16.30;99.90;;;;;;4869313;29;20213;-84
2021/08/04 07:51:52;;;;;;;1999.90;999.90;;;16.30;99.90;;;;;;4868989;29;20269;-84
2021/08/04 07:54:19;;;;;;;1999.90;999.90;;;16.40;99.90;;;;;;4867786;29;20175;-84
2021/08/04 07:56:44;;;;;;;1999.90;999.90;;;16.50;99.90;;;;;;4867374;29;20449;-83
2021/08/04 07:59:10;;;;;;;1999.90;999.90;;;16.50;99.90;;;;;;4867349;29;20923;-83
2021/08/04 08:01:36;;;;;;;1999.90;999.90;;;16.50;99.90;;;;;;4868089;29;20251;-83
2021/08/04 08:04:01;;;;;;;1999.90;999.90;;;16.60;99.90;;;;;;4869043;29;20174;-83
2021/08/04 08:06:27;;;;;;;1999.90;999.90;;;16.60;99.90;;;;;;4868512;29;20194;-83
2021/08/04 08:08:53;;;;;;;1999.90;999.90;;;16.70;99.90;;;;;;4898461;29;20270;-83
2021/08/04 08:11:18;;;;;;;1999.90;999.90;;;16.80;99.90;;;;;;4868676;29;20175;-83
2021/08/04 08:13:44;;;;;;;1999.90;999.90;;;16.80;99.90;;;;;;4898598;29;20171;-83
2021/08/04 08:16:10;;;;;;;1999.90;999.90;;;16.80;99.90;;;;;;4868833;29;20187;-83
2021/08/04 08:18:35;;;;;;;1999.90;999.90;;;16.80;99.90;;;;;;4869379;29;20198;-83
2021/08/04 08:21:01;;;;;;;1999.90;999.90;;;16.90;99.90;;;;;;4869153;29;20215;-83
2021/08/04 08:23:27;;;;;;;1999.90;999.90;;;17.00;99.90;;;;;;4870099;29;20172;-83
2021/08/04 08:25:53;;;;;;;1999.90;999.90;;;17.00;99.90;;;;;;4870121;29;20195;-83
2021/08/04 08:28:19;;;;;;;1999.90;999.90;;;17.10;99.90;;;;;;4868977;29;20436;-83
2021/08/04 08:30:46;;;;;;;1999.90;999.90;;;17.20;99.90;;;;;;4870537;29;20167;-83
2021/08/04 08:33:11;;;;;;;1999.90;999.90;;;17.20;99.90;;;;;;4869625;29;20512;-83
2021/08/04 08:35:37;;;;;;;1999.90;999.90;;;17.30;99.90;;;;;;4871243;29;20916;-84
2021/08/04 08:38:03;;;;;;;1999.90;999.90;;;17.10;99.90;;;;;;4871258;29;20555;-83
2021/08/04 08:40:29;;;;;;;1999.90;999.90;;;17.10;99.90;;;;;;4870991;29;20216;-83
2021/08/04 08:42:55;;;;;;;1999.90;999.90;;;17.30;99.90;;;;;;4869795;29;20426;-83
2021/08/04 08:45:22;;;;;;;1999.90;999.90;;;17.40;99.90;;;;;;4870403;29;20171;-82
2021/08/04 08:47:51;;;;;;;1999.90;999.90;;;17.50;99.90;;;;;;4867960;29;20515;-82
2021/08/04 08:50:25;;;;;;;1999.90;999.90;;;17.50;99.90;;;;;;4867066;29;20448;-82
2021/08/04 08:52:53;;;;;;;1999.90;999.90;;;17.50;99.90;;;;;;4865546;29;20511;-82
2021/08/04 08:55:19;;;;;;;1999.90;999.90;;;17.50;99.90;;;;;;4866715;29;20427;-82
2021/08/04 08:57:45;;;;;;;1999.90;999.90;;;17.50;99.90;;;;;;4895658;29;20440;-83
2021/08/04 09:00:15;;;;;;;1999.90;999.90;;;17.70;99.90;;;;;;4866236;29;20411;-82
2021/08/04 09:02:42;;;;;;;1999.90;999.90;;;17.70;99.90;;;;;;4864959;29;20456;-82
2021/08/04 09:05:10;;;;;;;1999.90;999.90;;;17.80;99.90;;;;;;4864840;29;20433;-81
2021/08/04 09:07:40;;;;;;;1999.90;999.90;;;17.90;99.90;;;;;;4865798;29;20433;-82
2021/08/04 09:10:43;;;;;;;1999.90;999.90;;;17.90;99.90;;;;;;4867002;29;20389;-83
2021/08/04 09:13:09;;;;;;;1999.90;999.90;;;18.00;99.90;;;;;;4895573;29;20404;-82
2021/08/04 09:15:41;;;;;;;1999.90;999.90;;;18.10;99.90;;;;;;4895696;29;20429;-83
2021/08/04 09:18:11;;;;;;;1999.90;999.90;;;18.10;99.90;;;;;;4865412;29;20600;-82
2021/08/04 09:20:55;;;;;;;1999.90;999.90;;;18.20;99.90;;;;;;4864027;29;20408;-82
2021/08/04 09:23:26;;;;;;;1999.90;999.90;;;18.30;99.90;;;;;;4892858;29;20436;-82
2021/08/04 09:26:11;;;;;;;1999.90;999.90;;;18.30;99.90;;;;;;4866269;29;20464;-83
2021/08/04 09:28:54;;;;;;;1999.90;999.90;;;18.40;99.90;;;;;;4865997;29;20388;-82
2021/08/04 09:31:40;;;;;;;1999.90;999.90;;;18.60;99.90;;;;;;4865277;29;20408;-81
2021/08/04 09:34:38;;;;;;;1999.90;999.90;;;18.60;99.90;;;;;;4894890;29;20423;-82
2021/08/04 09:37:46;;;;;;;1999.90;999.90;;;18.80;99.90;;;;;;4881564;23;20571;-81
2021/08/04 09:44:12;;;;;;;1999.90;999.90;;;19.00;99.90;;;;;;4884261;29;20408;-82
2021/08/04 09:54:38;;;;;;;1999.90;999.90;;;19.40;99.90;;;;;;4821861;29;20813;-83
2021/08/04 09:57:43;;;;;;;1999.90;999.90;;;19.40;99.90;;;;;;4915123;29;20444;-83
2021/08/04 10:00:36;;;;;;;1999.90;999.90;;;19.60;99.90;;;;;;4871352;29;20427;-83
2021/08/04 10:03:31;;;;;;;1999.90;999.90;;;19.80;99.90;;;;;;4865330;29;20891;-83
2021/08/04 10:06:25;;;;;;;1999.90;999.90;;;19.90;99.90;;;;;;4857645;29;20442;-83
2021/08/04 10:09:41;;;;;;;1999.90;999.90;;;20.20;99.90;;;;;;4887883;29;20783;-83
2021/08/04 10:13:24;;;;;;;1999.90;999.90;;;20.10;99.90;;;;;;4885499;29;20422;-83
2021/08/04 10:28:57;;;;;;;1999.90;999.90;;;20.30;99.90;;;;;;4856022;29;20451;-83
2021/08/04 10:31:40;;;;;;;1999.90;999.90;;;20.60;99.90;;;;;;4844437;29;20428;-83
2021/08/04 10:34:32;;;;;;;1999.90;999.90;;;20.70;99.90;;;;;;4824166;29;20446;-82
2021/08/04 10:37:32;;;;;;;;;;;;;;;;;;;;;
2021/08/04 10:43:44;;;;;;;1999.90;999.90;;;21.40;99.90;;;;;;4863223;29;20419;-83
2021/08/04 10:46:31;;;;;;;1999.90;999.90;;;21.60;99.90;;;;;;4863779;29;20777;-82
2021/08/04 10:49:09;;;;;;;1999.90;999.90;;;21.90;99.90;;;;;;4894061;29;20435;-82
2021/08/04 10:51:45;;;;;;;1999.90;999.90;;;22.10;99.90;;;;;;4894414;29;20975;-82
2021/08/04 10:54:17;;;;;;;1999.90;999.90;;;22.10;99.90;;;;;;4862258;29;20784;-82
2021/08/04 10:56:43;;;;;;;1999.90;999.90;;;22.30;99.90;;;;;;4863767;29;20800;-82
2021/08/04 10:59:44;;;;;;;1999.90;999.90;;;22.80;99.90;;;;;;4862583;29;20409;-82
2021/08/04 11:02:18;;;;;;;1999.90;999.90;;;23.10;99.90;;;;;;4863897;29;20461;-82
2021/08/04 11:04:44;;;;;;;1999.90;999.90;;;23.30;99.90;;;;;;4893784;29;20467;-82
2021/08/04 11:07:17;;;;;;;1999.90;999.90;;;23.70;99.90;;;;;;4863749;29;20428;-82
2021/08/04 11:12:51;;;;;;;1999.90;999.90;;;23.50;99.90;;;;;;4891277;29;20517;-82
2021/08/04 11:15:29;;;;;;;1999.90;999.90;;;23.60;95.90;;;;;;4863050;29;20524;-82
2021/08/04 11:18:05;;;;;;;1999.90;999.90;;;23.20;99.90;;;;;;4867054;29;20489;-83
2021/08/04 11:28:10;;;;;;;1999.90;999.90;;;22.70;99.90;;;;;;4865090;29;20785;-82
2021/08/04 11:35:00;;;;;;;1999.90;999.90;;;22.90;99.90;;;;;;4828653;29;20445;-82
2021/08/04 11:38:01;;;;;;;1999.90;999.90;;;23.40;99.90;;;;;;4831047;29;20837;-83
2021/08/04 11:44:46;;;;;;;;;;;;;;;;;;;;;
2021/08/04 11:47:58;;;;;;;1999.90;999.90;;;23.40;99.90;;;;;;4868678;29;20428;-82
2021/08/04 11:51:10;;;;;;;;;;;;;;;;;;;;;
2021/08/04 11:58:06;;;;;;;;;;;;;;;;;;;;;
2021/08/04 12:01:13;;;;;;;1999.90;999.90;;;23.20;99.90;;;;;;4868256;29;20404;-82
2021/08/04 12:17:42;;;;;;;1999.90;999.90;;;23.40;98.20;;;;;;4806701;29;20446;-82
2021/08/04 12:20:55;;;;;;;;;;;;;;;;;;;;;
2021/08/04 12:24:02;;;;;;;1999.90;999.90;;;23.20;95.90;;;;;;4866604;29;20852;-81
2021/08/04 12:26:45;;;;;;;1999.90;999.90;;;23.60;99.60;;;;;;4866003;29;20496;-81
2021/08/04 12:29:45;;;;;;;1999.90;999.90;;;24.00;85.30;;;;;;4865508;29;20408;-81
2021/08/04 12:32:35;;;;;;;1999.90;999.90;;;24.20;92.10;;;;;;4867650;29;20537;-81
2021/08/04 12:35:25;;;;;;;1999.90;999.90;;;24.40;93.80;;;;;;4866728;29;20936;-81
2021/08/04 12:37:57;;;;;;;1999.90;999.90;;;24.70;74.50;;;;;;4866274;29;20487;-81
2021/08/04 12:40:23;;;;;;;1999.90;999.90;;;24.80;81.60;;;;;;4864771;29;20864;-81
2021/08/04 12:42:52;;;;;;;1999.90;999.90;;;24.80;74.80;;;;;;4896078;29;20459;-81
2021/08/04 12:46:04;;;;;;;;;;;;;;;;;;;;;
2021/08/04 12:51:52;;;;;;;1999.90;999.90;;;25.40;71.60;;;;;;4846062;29;20410;-81
2021/08/04 12:54:50;;;;;;;1999.90;999.90;;;25.60;57.80;;;;;;4861731;29;20780;-81
2021/08/04 12:57:27;;;;;;;1999.90;999.90;;;25.70;57.70;;;;;;4864954;29;20432;-81
2021/08/04 12:59:52;;;;;;;1999.90;999.90;;;25.60;59.80;;;;;;4866180;29;20391;-81
2021/08/04 13:02:26;;;;;;;1999.90;999.90;;;25.30;66.60;;;;;;4866020;29;20782;-80
2021/08/04 13:05:05;;;;;;;1999.90;999.90;;;25.40;72.90;;;;;;4864951;29;20175;-80
2021/08/04 13:07:43;;;;;;;1999.90;999.90;;;25.60;84.40;;;;;;4865896;29;20527;-80
2021/08/04 13:10:10;;;;;;;1999.90;999.90;;;25.60;67.00;;;;;;4864064;29;20399;-80
2021/08/04 13:12:36;;;;;;;1999.90;999.90;;;26.00;71.80;;;;;;4865694;29;20428;-80
2021/08/04 13:15:19;;;;;;;1999.90;999.90;;;26.20;34.10;;;;;;4865563;29;20862;-80
2021/08/04 13:17:48;;;;;;;1999.90;999.90;;;26.20;18.70;;;;;;4865078;29;20286;-80
2021/08/04 13:20:26;;;;;;;1999.90;999.90;;;25.90;17.50;;;;;;4865329;29;20475;-80
2021/08/04 13:23:00;;;;;;;1999.90;999.90;;;25.90;35.30;;;;;;4895375;29;20485;-80
2021/08/04 13:25:53;;;;;;;1999.90;999.90;;;26.10;41.50;;;;;;4863669;29;20829;-80
2021/08/04 13:28:32;;;;;;;1999.90;999.90;;;26.10;36.00;;;;;;4865869;29;20424;-80
2021/08/04 13:31:03;;;;;;;1999.90;999.90;;;26.10;22.20;;;;;;4895186;29;20814;-80
2021/08/04 13:33:29;;;;;;;1999.90;999.90;;;26.00;21.60;;;;;;4865755;29;20425;-81
2021/08/04 13:36:04;;;;;;;1999.90;999.90;;;25.90;19.70;;;;;;4865636;29;20447;-81
2021/08/04 13:38:30;;;;;;;1999.90;999.90;;;26.10;18.60;;;;;;4864979;29;20428;-81
2021/08/04 13:40:57;;;;;;;1999.90;999.90;;;26.20;14.10;;;;;;4894568;29;20466;-81
2021/08/04 13:43:23;;;;;;;1999.90;999.90;;;26.40;9.90;;;;;;4865277;29;20175;-81
2021/08/04 13:45:50;;;;;;;1999.90;999.90;;;26.20;7.70;;;;;;4863522;29;20427;-80
2021/08/04 13:48:16;;;;;;;1999.90;999.90;;;25.90;6.70;;;;;;4865202;29;20430;-81
2021/08/04 13:50:42;;;;;;;1999.90;999.90;;;25.60;7.80;;;;;;4864114;29;20411;-81
2021/08/04 13:53:08;;;;;;;1999.90;999.90;;;25.40;7.70;;;;;;4864707;29;20408;-80
2021/08/04 13:55:35;;;;;;;1999.90;999.90;;;25.50;10.30;;;;;;4894711;29;20415;-81
2021/08/04 13:58:01;;;;;;;1999.90;999.90;;;25.30;13.40;;;;;;4865005;29;20183;-81
2021/08/04 14:00:32;;;;;;;1999.90;999.90;;;25.30;13.80;;;;;;4863244;29;20784;-81
2021/08/04 14:02:58;;;;;;;1999.90;999.90;;;25.20;16.20;;;;;;4865404;29;20531;-81
2021/08/04 14:05:28;;;;;;;1999.90;999.90;;;25.00;11.50;;;;;;4863590;29;20414;-81
2021/08/04 14:07:54;;;;;;;1999.90;999.90;;;24.50;13.40;;;;;;4864193;29;20432;-81
2021/08/04 14:10:23;;;;;;;1999.90;999.90;;;24.00;21.10;;;;;;4864768;29;20922;-80
2021/08/04 14:12:50;;;;;;;1999.90;999.90;;;23.80;29.10;;;;;;4865095;29;20457;-79
2021/08/04 14:15:19;;;;;;;1999.90;999.90;;;23.80;45.40;;;;;;4863536;29;20415;-75
2021/08/04 14:17:45;;;;;;;1999.90;999.90;;;23.70;58.60;;;;;;4864606;29;20437;-82
2021/08/04 14:20:12;;;;;;;1999.90;999.90;;;23.30;78.30;;;;;;4863414;29;20413;-81
2021/08/04 14:22:38;;;;;;;1999.90;999.90;;;23.20;83.10;;;;;;4863436;29;20458;-81
2021/08/04 14:25:06;;;;;;;1999.90;999.90;;;23.10;84.10;;;;;;4863014;29;20947;-81
2021/08/04 14:27:32;;;;;;;1999.90;999.90;;;23.20;83.70;;;;;;4863341;29;20452;-81
2021/08/04 14:29:57;;;;;;;1999.90;999.90;;;22.80;91.70;;;;;;4864718;29;20392;-81
2021/08/04 14:32:23;;;;;;;1999.90;999.90;;;22.90;89.20;;;;;;4955978;23;20866;-81
2021/08/04 14:34:49;;;;;;;1999.90;999.90;;;22.80;90.90;;;;;;4845975;29;20589;-81
2021/08/04 14:37:15;;;;;;;1999.90;999.90;;;22.80;92.60;;;;;;4845077;29;20278;-81
2021/08/04 14:39:40;;;;;;;1999.90;999.90;;;22.80;93.30;;;;;;4845470;29;20582;-81
2021/08/04 14:42:07;;;;;;;1999.90;999.90;;;22.80;93.20;;;;;;4845249;29;20491;-81
2021/08/04 14:44:32;;;;;;;1999.90;999.90;;;22.80;93.80;;;;;;4844640;29;20200;-82
2021/08/04 14:47:02;;;;;;;1999.90;999.90;;;22.70;96.20;;;;;;4844820;29;20442;-82
2021/08/04 14:49:28;;;;;;;1999.90;999.90;;;22.60;97.40;;;;;;4844197;29;20187;-82